createdAt,value
2023-09-05T00:02:15.219Z,44.60
2023-09-05T00:04:44.045Z,45.00
2023-09-05T00:07:12.229Z,45.30
2023-09-05T00:09:40.126Z,45.30
2023-09-05T00:12:09.416Z,47.40
2023-09-05T00:14:39.298Z,49.00
2023-09-05T00:17:07.207Z,49.60
2023-09-05T00:19:35.113Z,51.30
2023-09-05T00:22:02.971Z,51.80
2023-09-05T00:24:33.247Z,52.60
2023-09-05T00:27:02.249Z,52.10
2023-09-05T00:29:31.725Z,51.20
2023-09-05T00:32:03.210Z,49.90
2023-09-05T00:34:32.954Z,50.80
2023-09-05T00:37:01.961Z,49.80
2023-09-05T00:39:30.239Z,48.10
2023-09-05T00:41:58.954Z,49.10
2023-09-05T00:44:27.400Z,51.30
2023-09-05T00:46:57.446Z,53.50
2023-09-05T00:49:28.679Z,54.30
2023-09-05T00:51:58.744Z,54.30
2023-09-05T00:54:27.046Z,53.70
2023-09-05T00:56:55.160Z,53.40
2023-09-05T00:59:23.641Z,53.80
2023-09-05T01:01:51.783Z,53.10
2023-09-05T01:04:20.244Z,53.00
2023-09-05T01:06:58.290Z,52.70
2023-09-05T01:09:34.006Z,52.50
2023-09-05T01:12:03.442Z,53.20
2023-09-05T01:14:31.318Z,52.70
2023-09-05T01:17:02.542Z,54.30
2023-09-05T01:19:31.551Z,53.10
2023-09-05T01:22:12.978Z,52.00
2023-09-05T01:24:42.526Z,51.70
2023-09-05T01:27:11.367Z,51.10
2023-09-05T01:29:40.458Z,51.80
2023-09-05T01:32:10.799Z,52.60
2023-09-05T01:34:38.722Z,51.60
2023-09-05T01:37:06.747Z,51.80
2023-09-05T01:39:34.619Z,52.10
2023-09-05T01:42:04.066Z,51.80
2023-09-05T01:44:33.825Z,52.00
2023-09-05T01:47:01.699Z,52.50
2023-09-05T01:49:29.580Z,52.70
2023-09-05T01:51:57.472Z,53.20
2023-09-05T01:54:25.852Z,53.60
2023-09-05T01:56:53.710Z,54.30
2023-09-05T01:59:23.125Z,55.60
2023-09-05T02:01:51.291Z,56.50
2023-09-05T02:04:19.227Z,57.20
2023-09-05T02:06:47.127Z,57.50
2023-09-05T02:09:15.036Z,58.90
2023-09-05T02:11:42.927Z,59.70
2023-09-05T02:14:10.798Z,59.40
2023-09-05T02:16:40.074Z,58.50
2023-09-05T02:19:08.011Z,58.10
2023-09-05T02:21:35.872Z,59.10
2023-09-05T02:24:03.737Z,59.10
2023-09-05T02:26:31.579Z,58.50
2023-09-05T02:29:00.044Z,58.10
2023-09-05T02:31:27.925Z,57.40
2023-09-05T02:33:57.215Z,58.00
2023-09-05T02:36:25.125Z,58.30
2023-09-05T02:38:53.050Z,59.60
2023-09-05T02:41:21.001Z,59.20
2023-09-05T02:43:48.949Z,59.00
2023-09-05T02:46:16.934Z,58.30
2023-09-05T02:48:45.393Z,57.90
2023-09-05T02:51:15.310Z,57.50
2023-09-05T02:53:43.235Z,57.90
2023-09-05T02:56:11.125Z,58.50
2023-09-05T02:58:38.980Z,59.50
2023-09-05T03:01:11.632Z,59.90
2023-09-05T03:03:39.737Z,59.00
2023-09-05T03:06:11.716Z,59.10
2023-09-05T03:08:43.459Z,60.50
2023-09-05T03:11:11.404Z,61.60
2023-09-05T03:13:39.282Z,61.80
2023-09-05T03:16:07.237Z,63.80
2023-09-05T03:18:35.174Z,63.80
2023-09-05T03:21:03.142Z,62.80
2023-09-05T03:23:31.052Z,64.10
2023-09-05T03:26:00.239Z,65.50
2023-09-05T03:28:40.754Z,66.70
2023-09-05T03:31:08.690Z,67.00
2023-09-05T03:33:36.802Z,68.20
2023-09-05T03:36:06.266Z,68.40
2023-09-05T03:38:34.328Z,67.80
2023-09-05T03:41:03.618Z,68.20
2023-09-05T03:43:31.512Z,66.80
2023-09-05T03:45:59.476Z,67.90
2023-09-05T03:48:27.613Z,69.30
2023-09-05T03:50:55.575Z,69.50
2023-09-05T03:53:23.653Z,70.90
2023-09-05T03:55:52.432Z,72.20
2023-09-05T03:58:21.631Z,73.10
2023-09-05T04:00:49.514Z,73.50
2023-09-05T04:03:17.623Z,71.20
2023-09-05T04:05:45.584Z,71.70
2023-09-05T04:08:13.441Z,72.70
2023-09-05T04:10:41.912Z,72.00
2023-09-05T04:13:09.780Z,72.70
2023-09-05T04:15:39.497Z,72.30
2023-09-05T04:18:07.590Z,73.80
2023-09-05T04:20:35.546Z,74.40
2023-09-05T04:23:03.446Z,74.60
2023-09-05T04:25:33.751Z,73.40
2023-09-05T04:28:01.627Z,73.30
2023-09-05T04:30:29.685Z,73.30
2023-09-05T04:32:59.671Z,74.20
2023-09-05T04:35:27.636Z,74.10
2023-09-05T04:37:55.520Z,74.20
2023-09-05T04:40:23.823Z,75.10
2023-09-05T04:42:51.670Z,75.00
2023-09-05T04:45:19.536Z,75.90
2023-09-05T04:47:47.463Z,76.50
2023-09-05T04:50:16.713Z,76.80
2023-09-05T04:52:44.544Z,76.20
2023-09-05T04:55:12.415Z,76.80
2023-09-05T04:57:43.404Z,74.80
2023-09-05T05:00:14.730Z,73.50
2023-09-05T05:02:42.860Z,73.30
2023-09-05T05:05:11.266Z,73.80
2023-09-05T05:07:40.501Z,74.30
2023-09-05T05:10:09.467Z,74.90
2023-09-05T05:12:37.350Z,75.60
2023-09-05T05:15:05.669Z,76.80
2023-09-05T05:17:33.576Z,75.70
2023-09-05T05:20:01.760Z,74.50
2023-09-05T05:22:29.617Z,72.70
2023-09-05T05:24:58.928Z,71.20
2023-09-05T05:27:27.151Z,69.20
2023-09-05T05:29:55.458Z,67.20
2023-09-05T05:32:23.307Z,67.30
2023-09-05T05:34:51.167Z,67.50
2023-09-05T05:37:19.214Z,68.00
2023-09-05T05:39:47.090Z,68.20
2023-09-05T05:42:16.316Z,68.90
2023-09-05T05:44:44.212Z,69.40
2023-09-05T05:47:12.050Z,68.50
2023-09-05T05:49:39.928Z,67.90
2023-09-05T05:52:09.979Z,68.40
2023-09-05T05:54:37.874Z,68.00
2023-09-05T05:57:06.281Z,68.30
2023-09-05T05:59:35.482Z,67.30
2023-09-05T06:02:04.660Z,65.70
2023-09-05T06:04:32.642Z,64.80
2023-09-05T06:07:00.555Z,64.80
2023-09-05T06:09:29.036Z,64.00
2023-09-05T06:11:56.925Z,62.50
2023-09-05T06:14:24.779Z,62.30
2023-09-05T06:16:54.045Z,63.30
2023-09-05T06:19:22.040Z,63.70
2023-09-05T06:21:49.885Z,62.30
2023-09-05T06:24:19.720Z,63.50
2023-09-05T06:26:47.570Z,60.90
2023-09-05T06:29:15.433Z,60.70
2023-09-05T06:31:43.410Z,61.00
2023-09-05T06:34:12.708Z,59.70
2023-09-05T06:36:41.531Z,60.00
2023-09-05T06:39:09.626Z,60.90
2023-09-05T06:41:38.241Z,60.80
2023-09-05T06:44:06.482Z,61.00
2023-09-05T06:46:36.586Z,59.80
2023-09-05T06:49:05.194Z,60.10
2023-09-05T06:51:34.468Z,60.50
2023-09-05T06:54:02.634Z,59.10
2023-09-05T06:56:30.486Z,58.00
2023-09-05T06:59:00.786Z,59.20
2023-09-05T07:01:30.477Z,57.50
2023-09-05T07:03:58.665Z,57.50
2023-09-05T07:06:26.542Z,58.00
2023-09-05T07:08:55.893Z,56.40
2023-09-05T07:11:24.064Z,54.00
2023-09-05T07:13:52.068Z,54.80
2023-09-05T07:16:20.024Z,56.10
2023-09-05T07:18:47.971Z,55.10
2023-09-05T07:21:16.298Z,55.80
2023-09-05T07:23:44.284Z,55.70
2023-09-05T07:26:13.596Z,55.60
2023-09-05T07:28:41.495Z,54.70
2023-09-05T07:31:09.730Z,53.40
2023-09-05T07:33:38.744Z,54.20
2023-09-05T07:36:06.844Z,52.00
2023-09-05T07:38:34.750Z,52.90
2023-09-05T07:41:03.505Z,53.10
2023-09-05T07:43:33.743Z,50.50
2023-09-05T07:46:01.708Z,49.30
2023-09-05T07:48:29.678Z,47.30
2023-09-05T07:51:03.088Z,46.20
2023-09-05T07:53:31.213Z,46.80
2023-09-05T07:55:59.402Z,46.40
2023-09-05T07:58:28.162Z,47.00
2023-09-05T08:00:58.296Z,46.60
2023-09-05T08:03:27.726Z,45.90
2023-09-05T08:05:56.232Z,45.50
2023-09-05T08:08:24.857Z,45.60
2023-09-05T08:10:53.055Z,46.80
2023-09-05T08:13:20.996Z,45.50
2023-09-05T08:15:49.013Z,45.10
2023-09-05T08:18:18.901Z,45.10
2023-09-05T08:20:47.687Z,45.20
2023-09-05T08:23:15.664Z,45.60
2023-09-05T08:25:43.575Z,44.00
2023-09-05T08:28:11.449Z,44.30
2023-09-05T08:30:39.368Z,45.30
2023-09-05T08:33:07.494Z,43.90
2023-09-05T08:35:38.830Z,44.40
2023-09-05T08:38:07.346Z,42.80
2023-09-05T08:40:35.443Z,42.60
2023-09-05T08:43:03.971Z,42.60
2023-09-05T08:45:33.271Z,42.50
2023-09-05T08:48:01.736Z,42.10
2023-09-05T08:50:30.909Z,42.90
2023-09-05T08:53:04.073Z,43.50
2023-09-05T08:55:32.186Z,43.00
2023-09-05T08:58:01.307Z,43.80
2023-09-05T09:00:30.151Z,43.00
2023-09-05T09:03:00.602Z,42.30
2023-09-05T09:05:29.399Z,42.40
2023-09-05T09:07:58.170Z,42.40
2023-09-05T09:10:27.477Z,43.00
2023-09-05T09:12:56.860Z,43.70
2023-09-05T09:15:27.168Z,42.00
2023-09-05T09:17:55.698Z,42.60
2023-09-05T09:20:24.873Z,42.10
2023-09-05T09:22:53.960Z,42.00
2023-09-05T09:25:22.579Z,41.40
2023-09-05T09:27:55.466Z,40.70
2023-09-05T09:30:25.221Z,40.00
2023-09-05T09:32:54.201Z,40.60
2023-09-05T09:35:22.683Z,40.00
2023-09-05T09:37:51.373Z,38.90
2023-09-05T09:40:19.479Z,40.10
2023-09-05T09:42:50.923Z,40.90
2023-09-05T09:45:21.609Z,40.70
2023-09-05T09:47:50.701Z,40.40
2023-09-05T09:50:21.563Z,40.80
2023-09-05T09:52:54.405Z,40.10
2023-09-05T09:55:26.449Z,40.60
2023-09-05T09:58:03.161Z,40.40
2023-09-05T10:00:33.775Z,39.30
2023-09-05T10:03:02.351Z,40.10
2023-09-05T10:05:33.029Z,39.80
2023-09-05T10:08:01.297Z,39.70
2023-09-05T10:10:30.951Z,39.40
2023-09-05T10:12:59.940Z,39.60
2023-09-05T10:15:30.226Z,39.50
2023-09-05T10:18:01.968Z,39.10
2023-09-05T10:20:31.302Z,40.40
2023-09-05T10:22:59.754Z,39.80
2023-09-05T10:25:29.751Z,40.00
2023-09-05T10:27:57.789Z,40.00
2023-09-05T10:30:25.866Z,40.20
2023-09-05T10:32:54.987Z,40.20
2023-09-05T10:35:25.034Z,40.00
2023-09-05T10:38:00.499Z,39.10
2023-09-05T10:40:35.835Z,40.70
2023-09-05T10:43:05.980Z,39.20
2023-09-05T10:45:35.832Z,40.40
2023-09-05T10:48:09.109Z,39.60
2023-09-05T10:51:13.108Z,39.40
2023-09-05T10:53:42.054Z,38.90
2023-09-05T10:56:41.375Z,37.10
2023-09-05T10:59:13.160Z,36.80
2023-09-05T11:01:49.682Z,36.50
2023-09-05T11:04:27.487Z,34.70
2023-09-05T11:07:02.615Z,34.70
2023-09-05T11:09:31.113Z,35.50
2023-09-05T11:11:59.056Z,33.10
2023-09-05T11:14:34.482Z,34.00
2023-09-05T11:17:02.842Z,32.90
2023-09-05T11:19:39.199Z,31.70
2023-09-05T11:22:11.474Z,33.00
2023-09-05T11:24:47.363Z,31.30
2023-09-05T11:27:21.475Z,33.10
2023-09-05T11:29:51.050Z,33.80
2023-09-05T11:32:19.021Z,33.70
2023-09-05T11:34:48.900Z,32.70
2023-09-05T11:37:21.146Z,32.80
2023-09-05T11:39:50.563Z,33.30
2023-09-05T11:42:23.922Z,33.30
2023-09-05T11:44:54.868Z,32.10
2023-09-05T11:47:24.134Z,32.00
2023-09-05T11:49:53.048Z,34.50
2023-09-05T11:52:24.326Z,33.50
2023-09-05T11:54:53.884Z,32.70
2023-09-05T11:57:23.720Z,32.80
2023-09-05T11:59:52.170Z,33.00
2023-09-05T12:02:20.406Z,32.60
2023-09-05T12:04:49.619Z,33.10
2023-09-05T12:07:17.516Z,33.50
2023-09-05T12:09:49.000Z,33.30
2023-09-05T12:12:21.083Z,34.10
2023-09-05T12:14:50.501Z,33.60
2023-09-05T12:17:19.699Z,33.70
2023-09-05T12:19:48.964Z,33.40
2023-09-05T12:22:28.457Z,33.30
2023-09-05T12:25:15.880Z,33.10
2023-09-05T12:27:47.170Z,33.00
2023-09-05T12:30:38.765Z,32.50
2023-09-05T12:33:06.740Z,32.00
2023-09-05T12:35:36.041Z,33.40
2023-09-05T12:38:06.163Z,32.00
2023-09-05T12:40:35.636Z,33.20
2023-09-05T12:43:03.777Z,32.80
2023-09-05T12:45:32.323Z,32.80
2023-09-05T12:48:00.455Z,32.20
2023-09-05T12:50:31.595Z,33.90
2023-09-05T12:53:02.116Z,36.00
2023-09-05T12:55:33.354Z,36.80
2023-09-05T12:58:04.807Z,36.30
2023-09-05T13:00:34.021Z,36.00
2023-09-05T13:03:02.242Z,36.40
2023-09-05T13:05:31.452Z,36.10
2023-09-05T13:07:59.817Z,35.90
2023-09-05T13:10:28.969Z,35.60
2023-09-05T13:13:00.199Z,36.20
2023-09-05T13:15:30.563Z,35.50
2023-09-05T13:17:58.839Z,34.70
2023-09-05T13:20:28.750Z,35.80
2023-09-05T13:22:58.205Z,36.20
2023-09-05T13:25:29.818Z,36.30
2023-09-05T13:27:57.943Z,37.20
2023-09-05T13:30:25.987Z,36.80
2023-09-05T13:32:56.580Z,37.20
2023-09-05T13:35:24.638Z,37.70
2023-09-05T13:37:52.571Z,37.70
2023-09-05T13:40:20.546Z,38.60
2023-09-05T13:42:48.440Z,38.70
2023-09-05T13:45:16.577Z,38.00
2023-09-05T13:47:44.487Z,38.40
2023-09-05T13:52:44.885Z,38.60
2023-09-05T13:55:12.757Z,38.30
2023-09-05T13:57:40.730Z,37.90
2023-09-05T14:00:09.846Z,37.50
2023-09-05T14:02:37.823Z,37.60
2023-09-05T14:05:06.601Z,38.30
2023-09-05T14:07:37.365Z,38.10
2023-09-05T14:10:05.543Z,37.00
2023-09-05T14:12:33.426Z,38.50
2023-09-05T14:15:01.837Z,38.10
2023-09-05T14:17:29.722Z,37.80
2023-09-05T14:19:57.794Z,38.90
2023-09-05T14:22:25.685Z,38.40
2023-09-05T14:24:55.239Z,38.90
2023-09-05T14:27:23.175Z,39.00
2023-09-05T14:29:52.591Z,39.10
2023-09-05T14:32:20.892Z,39.10
2023-09-05T14:34:55.389Z,38.80
2023-09-05T14:37:25.567Z,38.80
2023-09-05T14:39:54.845Z,38.80
2023-09-05T14:42:22.909Z,39.10
2023-09-05T14:44:50.859Z,39.60
2023-09-05T14:47:18.947Z,39.50
2023-09-05T14:49:47.424Z,39.70
2023-09-05T14:52:15.353Z,40.40
2023-09-05T14:54:43.788Z,39.40
2023-09-05T14:57:13.099Z,40.00
2023-09-05T14:59:40.977Z,40.10
2023-09-05T15:02:10.589Z,38.50
2023-09-05T15:04:40.077Z,37.90
2023-09-05T15:07:09.298Z,38.80
2023-09-05T15:09:37.700Z,37.90
2023-09-05T15:12:07.466Z,37.90
2023-09-05T15:14:38.655Z,37.40
2023-09-05T15:17:07.520Z,39.00
2023-09-05T15:19:35.522Z,39.30
2023-09-05T15:22:04.876Z,38.70
2023-09-05T15:24:33.299Z,39.40
2023-09-05T15:27:02.706Z,38.70
2023-09-05T15:29:30.627Z,39.90
2023-09-05T15:31:59.887Z,40.10
2023-09-05T15:34:30.749Z,40.20
2023-09-05T15:36:58.950Z,42.80
2023-09-05T15:39:26.936Z,44.80
2023-09-05T15:41:54.851Z,45.60
2023-09-05T15:44:22.762Z,46.10
2023-09-05T15:46:50.660Z,46.20
2023-09-05T15:49:19.938Z,46.30
2023-09-05T15:51:48.639Z,46.60
2023-09-05T15:54:18.013Z,45.90
2023-09-05T15:56:45.948Z,46.50
2023-09-05T15:59:14.038Z,46.80
2023-09-05T16:01:41.985Z,47.10
2023-09-05T16:04:09.983Z,46.80
2023-09-05T16:06:39.286Z,47.30
2023-09-05T16:09:07.170Z,47.50
2023-09-05T16:11:37.006Z,47.40
2023-09-05T16:14:06.168Z,47.90
2023-09-05T16:16:34.779Z,47.90
2023-09-05T16:19:03.039Z,48.30
2023-09-05T16:21:31.043Z,48.30
2023-09-05T16:24:00.310Z,48.10
2023-09-05T16:26:30.877Z,48.70
2023-09-05T16:28:59.040Z,48.80
2023-09-05T16:31:26.958Z,48.90
2023-09-05T16:33:54.953Z,49.30
2023-09-05T16:36:23.469Z,49.30
2023-09-05T16:38:52.491Z,49.40
2023-09-05T16:41:21.734Z,49.90
2023-09-05T16:43:49.562Z,49.70
2023-09-05T16:46:18.141Z,50.30
2023-09-05T16:48:46.447Z,50.60
2023-09-05T16:51:15.091Z,50.80
2023-09-05T16:53:43.499Z,50.90
2023-09-05T16:56:13.564Z,51.30
2023-09-05T16:58:43.549Z,51.30
2023-09-05T17:01:11.556Z,51.40
2023-09-05T17:03:39.625Z,51.70
2023-09-05T17:06:07.617Z,51.90
2023-09-05T17:08:35.492Z,52.40
2023-09-05T17:11:04.052Z,52.50
2023-09-05T17:13:32.104Z,52.90
2023-09-05T17:16:00.434Z,53.20
2023-09-05T17:18:28.792Z,53.60
2023-09-05T17:20:58.234Z,54.00
2023-09-05T17:23:26.214Z,54.10
2023-09-05T17:25:54.101Z,53.50
2023-09-05T17:28:23.117Z,53.60
2023-09-05T17:30:51.223Z,53.70
2023-09-05T17:33:20.669Z,54.10
2023-09-05T17:35:53.647Z,54.50
2023-09-05T17:38:22.175Z,53.50
2023-09-05T17:40:50.268Z,53.30
2023-09-05T17:43:18.932Z,53.10
2023-09-05T17:45:47.495Z,53.20
2023-09-05T17:48:23.331Z,53.20
2023-09-05T17:50:57.763Z,53.50
2023-09-05T17:53:27.037Z,53.70
2023-09-05T17:55:54.988Z,53.80
2023-09-05T17:58:22.915Z,54.20
2023-09-05T18:00:52.571Z,54.50
2023-09-05T18:03:20.916Z,54.90
2023-09-05T18:05:50.066Z,54.90
2023-09-05T18:08:19.743Z,55.30
2023-09-05T18:10:48.325Z,55.60
2023-09-05T18:13:16.249Z,55.80
2023-09-05T18:15:45.749Z,56.20
2023-09-05T18:18:15.207Z,56.40
2023-09-05T18:20:43.594Z,57.00
2023-09-05T18:23:11.544Z,57.10
2023-09-05T18:25:40.897Z,57.40
2023-09-05T18:28:08.842Z,57.80
2023-09-05T18:30:36.750Z,58.10
2023-09-05T18:33:04.984Z,58.30
2023-09-05T18:35:32.844Z,58.50
2023-09-05T18:38:01.082Z,58.90
2023-09-05T18:40:29.036Z,58.90
2023-09-05T18:42:58.325Z,59.10
2023-09-05T18:45:26.352Z,58.80
2023-09-05T18:47:54.277Z,58.70
2023-09-05T18:50:22.148Z,58.30
2023-09-05T18:52:51.896Z,58.70
2023-09-05T18:55:19.836Z,58.20
2023-09-05T18:57:47.690Z,57.50
2023-09-05T19:00:17.646Z,56.80
2023-09-05T19:02:46.082Z,57.20
2023-09-05T19:05:16.306Z,56.80
2023-09-05T19:07:43.238Z,56.60
2023-09-05T19:10:11.467Z,56.30
2023-09-05T19:12:39.328Z,56.10
2023-09-05T19:15:08.779Z,56.20
2023-09-05T19:17:38.115Z,56.20
2023-09-05T19:20:07.710Z,56.60
2023-09-05T19:22:36.305Z,56.80
2023-09-05T19:25:04.445Z,56.90
2023-09-05T19:27:32.335Z,56.70
2023-09-05T19:30:00.259Z,56.60
2023-09-05T19:32:28.371Z,56.10
2023-09-05T19:34:57.577Z,56.00
2023-09-05T19:37:25.416Z,55.90
2023-09-05T19:39:53.373Z,55.70
2023-09-05T19:42:21.559Z,55.90
2023-09-05T19:44:49.656Z,56.00
2023-09-05T19:47:17.683Z,56.60
2023-09-05T19:49:45.669Z,57.10
2023-09-05T19:52:15.385Z,57.40
2023-09-05T19:54:43.225Z,56.90
2023-09-05T19:57:11.175Z,57.00
2023-09-05T19:59:39.150Z,56.80
2023-09-05T20:02:07.662Z,57.20
2023-09-05T20:04:35.590Z,57.40
2023-09-05T20:07:03.789Z,56.90
2023-09-05T20:09:35.241Z,57.20
2023-09-05T20:12:04.820Z,57.30
2023-09-05T20:14:33.249Z,57.20
2023-09-05T20:17:01.160Z,57.20
2023-09-05T20:19:29.899Z,56.30
2023-09-05T20:21:59.798Z,56.40
2023-09-05T20:24:27.768Z,56.70
2023-09-05T20:26:56.999Z,56.60
2023-09-05T20:29:25.311Z,56.10
2023-09-05T20:31:53.225Z,56.00
2023-09-05T20:34:21.396Z,56.10
2023-09-05T20:36:53.223Z,55.90
2023-09-05T20:39:23.217Z,55.90
2023-09-05T20:41:51.233Z,56.60
2023-09-05T20:44:20.435Z,57.20
2023-09-05T20:46:48.563Z,57.90
2023-09-05T20:49:16.561Z,57.20
2023-09-05T20:51:44.954Z,56.70
2023-09-05T20:54:13.146Z,54.10
2023-09-05T20:56:41.058Z,54.80
2023-09-05T20:59:09.498Z,52.10
2023-09-05T21:01:39.537Z,50.70
2023-09-05T21:04:09.253Z,51.30
2023-09-05T21:06:37.337Z,51.20
2023-09-05T21:09:05.580Z,50.00
2023-09-05T21:11:33.455Z,50.00
2023-09-05T21:14:01.687Z,50.10
2023-09-05T21:16:29.560Z,51.20
2023-09-05T21:19:01.473Z,53.50
2023-09-05T21:21:30.754Z,53.60
2023-09-05T21:23:58.670Z,55.20
2023-09-05T21:26:26.523Z,56.60
2023-09-05T21:28:54.345Z,57.50
2023-09-05T21:31:22.299Z,58.20
2023-09-05T21:33:50.246Z,59.00
2023-09-05T21:36:19.555Z,59.40
2023-09-05T21:38:47.432Z,59.40
2023-09-05T21:41:15.286Z,58.90
2023-09-05T21:43:43.202Z,59.90
2023-09-05T21:46:13.476Z,60.60
2023-09-05T21:48:41.718Z,61.10
2023-09-05T21:51:09.625Z,61.80
2023-09-05T21:53:39.533Z,62.10
2023-09-05T21:56:07.398Z,62.90
2023-09-05T21:58:35.275Z,62.90
2023-09-05T22:01:03.214Z,62.00
2023-09-05T22:03:31.481Z,62.30
2023-09-05T22:05:59.498Z,62.80
2023-09-05T22:08:27.614Z,62.50
2023-09-05T22:10:58.324Z,62.40
2023-09-05T22:13:26.161Z,62.90
2023-09-05T22:15:55.604Z,63.50
2023-09-05T22:18:23.892Z,63.20
2023-09-05T22:20:58.487Z,63.70
2023-09-05T22:23:27.342Z,64.10
2023-09-05T22:25:56.716Z,64.60
2023-09-05T22:28:27.516Z,65.30
2023-09-05T22:30:56.018Z,66.10
2023-09-05T22:33:24.373Z,63.10
2023-09-05T22:35:52.659Z,64.00
2023-09-05T22:38:21.426Z,64.90
2023-09-05T22:40:49.368Z,66.10
2023-09-05T22:43:18.945Z,66.80
2023-09-05T22:45:47.219Z,67.00
2023-09-05T22:48:15.247Z,67.60
2023-09-05T22:50:44.182Z,67.60
2023-09-05T22:53:12.033Z,67.20
2023-09-05T22:55:40.736Z,67.90
2023-09-05T22:58:08.939Z,67.90
2023-09-05T23:00:39.483Z,68.20
2023-09-05T23:03:08.159Z,66.60
2023-09-05T23:05:36.318Z,67.20
2023-09-05T23:08:05.214Z,67.80
2023-09-05T23:10:33.087Z,67.30
2023-09-05T23:13:00.983Z,68.70
2023-09-05T23:15:28.890Z,68.40
2023-09-05T23:17:58.298Z,68.80
2023-09-05T23:20:26.553Z,69.00
2023-09-05T23:22:54.422Z,70.20
2023-09-05T23:25:23.321Z,70.40
2023-09-05T23:27:52.178Z,70.20
2023-09-05T23:30:20.230Z,70.40
2023-09-05T23:32:48.281Z,70.60
2023-09-05T23:35:19.469Z,71.10
2023-09-05T23:37:47.378Z,71.90
2023-09-05T23:40:17.986Z,72.00
2023-09-05T23:42:46.975Z,72.20
2023-09-05T23:45:16.411Z,72.70
2023-09-05T23:47:48.248Z,72.90
2023-09-05T23:50:19.997Z,73.00
2023-09-05T23:52:50.093Z,73.80
2023-09-05T23:55:19.323Z,74.50
2023-09-05T23:57:47.422Z,75.30
